Αρχική σελίδα
METAR-TAF:

METAR-TAF

Αεροδρόμια :

Νιαμέυ, Νίγηρας

γεωγραφικό πλάτος: 13-29N, γεωγραφικό μήκος: 002-10E, υψόμετρο: 223 μ

Παρών καιρός

Η αναφορά έγινε 1 ώρα και 5 λεπτά πριν, στις 15:00 UTC
Άνεμος 7 kt από Δ/BΔ
Θερμοκρασία 41°C
Υγρασία 19%
Πίεση 1009 hPa
Ορατότητα 10 χλμ και άνω
Δεν υπάρχουν νέφη με βάση κάτω από τα 1500 μ. και δεν υπάρχουν νέφη σωρειτομελανίτες.

METAR: DRRN 271500Z 30007KT CAVOK 41/13 Q1009 NOSIG

Χρόνος: 17:05 (16:05 UTC)

Πρόγνωση Καιρού

Η αναφορά έγινε 8 ώρες και 15 λεπτά πριν, στις 07:50 UTC
Η πρόγνωση ισχύει από τις 27 στις 08 UTC έως τις 28 στις 12 UTC
Άνεμος 10 kt από Δ/ΝΔ
Ορατότητα: 8000 μ
Πιθανότητα 30% :
Προσωρινά
από 27 στις 14 UTC έως τις 27 στις 18 UTC
Διάσπαρτα νέφη σε ύψος 3000 πόδια
Λίγα νέφη σε ύψος 4000 πόδια, Σωρειτομελανίτες.
καταιγίδα,

TAF: DRRN 270750Z 2708/2812 24010KT 8000 NSC PROB30 TEMPO 2714/2718 TS SCT030 FEW040CB

Μετεωρολογικές αναφορές και προγνώσεις για περισσότερα από 4000 αεροδρόμια (δελτία METAR και TAF).

Οι διαθέσιμοι σταθμοί απεικονίζονται στο χάρτη με κίτρινες και κόκκινες κουκκίδες.

Μετακινήστε το ποντίκι πάνω από τις κουκκίδες για να δείτε το όνομα του σταθμού.

Στη συνέχεια, κάντε κλικ για να δείτε τις μετεωρολογικές αναφορές και τις προγνώσεις καιρού.

Για να αλλάξετε το χάρτη: κάντε κλικ στα πράσινα κουμπιά με τον μαύρο σταυρό για να ζουμάρετε, στο πράσινο κουμπί με την παύλα για να αφαιρέσετε το ζουμ ή στα πράσινα βέλη για να αντιπαραβάλλετε χάρτες.


METAR-TAF: